Time;durP1;ratioP1;P1;durP2;ratioP2;P2;SDS_P1;SDS_P2;PMS_P1;PMS_P2;Temp;Humidity;BMP_temperature;BMP_pressure;BME280_temperature;BME280_humidity;BME280_pressure;Samples;Min_cycle;Max_cycle;Signal;HPM_P1;HPM_P2
2022/11/01 00:01:51;;;;;;;11.87;5.10;;;19.10;99.90;;;;;;4880506;29;20484;-76
2022/11/01 00:04:18;;;;;;;5.03;3.30;;;19.10;99.90;;;;;;4897463;29;20433;-76
2022/11/01 00:06:43;;;;;;;14.40;4.80;;;19.20;99.90;;;;;;4897054;29;20519;-76
2022/11/01 00:09:09;;;;;;;12.27;4.90;;;19.10;99.90;;;;;;4897126;29;20524;-73
2022/11/01 00:11:35;;;;;;;13.63;4.87;;;19.20;99.90;;;;;;4897296;29;20180;-72
2022/11/01 00:14:00;;;;;;;10.30;4.17;;;19.20;99.90;;;;;;4897408;29;20188;-73
2022/11/01 00:16:26;;;;;;;7.83;4.23;;;19.20;99.90;;;;;;4897145;29;20582;-79
2022/11/01 00:18:51;;;;;;;6.87;4.20;;;19.20;99.90;;;;;;4897204;29;20180;-77
2022/11/01 00:21:18;;;;;;;8.40;4.50;;;19.10;99.90;;;;;;4880383;29;20263;-77
2022/11/01 00:23:44;;;;;;;8.43;4.00;;;19.10;99.90;;;;;;4897112;29;20232;-77
2022/11/01 00:26:18;;;;;;;16.90;4.67;;;19.20;99.90;;;;;;4897362;29;20436;-77
2022/11/01 00:28:44;;;;;;;8.20;4.70;;;19.10;99.90;;;;;;4897095;29;20485;-78
2022/11/01 00:31:11;;;;;;;12.20;5.80;;;19.10;99.90;;;;;;4896896;29;20479;-77
2022/11/01 00:33:38;;;;;;;10.97;4.03;;;19.10;99.90;;;;;;4888369;29;20483;-76
2022/11/01 00:36:04;;;;;;;7.80;4.47;;;19.10;99.90;;;;;;4886845;29;20442;-75
2022/11/01 00:38:30;;;;;;;7.77;5.10;;;19.10;99.90;;;;;;4886636;29;20490;-75
2022/11/01 00:40:55;;;;;;;10.17;4.23;;;19.00;99.90;;;;;;4887832;29;20464;-76
2022/11/01 00:43:21;;;;;;;9.83;5.87;;;19.10;99.90;;;;;;4880807;29;20213;-75
2022/11/01 00:45:47;;;;;;;11.20;4.90;;;19.10;99.90;;;;;;4878123;29;20181;-75
2022/11/01 00:48:13;;;;;;;10.50;5.53;;;19.10;99.90;;;;;;4878272;29;20180;-75
2022/11/01 00:50:39;;;;;;;5.73;3.80;;;19.00;99.90;;;;;;4864092;29;20236;-76
2022/11/01 00:53:05;;;;;;;8.87;4.37;;;19.00;99.90;;;;;;4885463;29;20434;-75
2022/11/01 00:55:30;;;;;;;14.63;4.30;;;19.00;99.90;;;;;;4876642;29;20489;-76
2022/11/01 00:57:56;;;;;;;10.90;4.57;;;18.90;99.90;;;;;;4876716;29;20432;-75
2022/11/01 01:00:21;;;;;;;9.70;4.70;;;18.90;99.90;;;;;;4860332;29;20193;-75
2022/11/01 01:02:47;;;;;;;8.80;5.27;;;18.90;99.90;;;;;;4876974;29;20212;-75
2022/11/01 01:05:13;;;;;;;9.07;4.60;;;18.90;99.90;;;;;;4877829;29;20215;-74
2022/11/01 01:07:38;;;;;;;9.03;4.33;;;18.90;99.90;;;;;;4878087;29;20645;-74
2022/11/01 01:10:05;;;;;;;12.83;4.53;;;18.90;99.90;;;;;;4877296;29;20182;-76
2022/11/01 01:12:31;;;;;;;4.93;3.77;;;18.90;99.90;;;;;;4878098;29;20177;-76
2022/11/01 01:14:56;;;;;;;10.00;4.20;;;18.80;99.90;;;;;;4878419;29;20791;-76
2022/11/01 01:17:22;;;;;;;12.33;4.57;;;18.80;99.90;;;;;;4877551;29;20209;-76
2022/11/01 01:19:47;;;;;;;8.00;4.20;;;18.80;99.90;;;;;;4879812;29;20185;-77
2022/11/01 01:22:13;;;;;;;6.53;4.20;;;18.70;99.90;;;;;;4882267;29;20673;-74
2022/11/01 01:24:44;;;;;;;10.53;5.23;;;18.60;99.90;;;;;;4882267;29;20541;-74
2022/11/01 01:27:11;;;;;;;5.47;4.00;;;18.60;99.90;;;;;;4897685;29;20223;-73
2022/11/01 01:29:40;;;;;;;8.40;4.33;;;18.60;99.90;;;;;;4901067;29;20432;-73
2022/11/01 01:32:07;;;;;;;8.23;5.07;;;18.50;99.90;;;;;;4900943;29;20983;-74
2022/11/01 05:31:12;;;;;;;5.30;4.13;;;17.90;99.90;;;;;;5519394;23;20520;-73
2022/11/01 05:33:37;;;;;;;5.73;3.60;;;17.80;99.90;;;;;;4900866;29;20460;-74
2022/11/01 05:36:03;;;;;;;7.00;4.50;;;17.80;99.90;;;;;;4901142;29;20648;-75
2022/11/01 05:38:28;;;;;;;5.77;4.00;;;17.80;99.90;;;;;;4900932;29;20183;-75
2022/11/01 05:40:54;;;;;;;6.33;4.00;;;17.80;99.90;;;;;;4900905;29;20605;-76
2022/11/01 05:43:19;;;;;;;6.77;4.00;;;17.90;99.90;;;;;;4900912;29;20707;-75
2022/11/01 05:45:45;;;;;;;5.53;4.30;;;17.90;99.90;;;;;;4900839;29;20664;-75
2022/11/01 05:48:10;;;;;;;12.20;3.80;;;17.90;99.90;;;;;;4900868;29;20181;-75
2022/11/01 05:50:36;;;;;;;9.33;3.80;;;17.80;99.90;;;;;;4900697;29;20231;-75
2022/11/01 05:53:09;;;;;;;7.07;4.20;;;17.70;99.90;;;;;;4900786;29;20177;-75
2022/11/01 05:55:35;;;;;;;7.23;4.33;;;17.80;99.90;;;;;;4900623;29;20212;-78
2022/11/01 05:58:01;;;;;;;7.90;4.67;;;17.80;99.90;;;;;;4899205;29;20433;-79
2022/11/01 06:00:26;;;;;;;6.07;3.37;;;17.80;99.90;;;;;;4874117;29;20461;-78
2022/11/01 06:02:52;;;;;;;5.60;3.77;;;17.80;99.90;;;;;;4882635;29;20221;-78
2022/11/01 06:05:17;;;;;;;6.03;4.13;;;17.80;99.90;;;;;;4881242;29;20320;-78
2022/11/01 06:07:43;;;;;;;8.03;4.23;;;17.80;99.90;;;;;;4881748;29;20212;-76
2022/11/01 06:10:09;;;;;;;15.63;4.70;;;17.80;99.90;;;;;;4881785;29;20174;-75
2022/11/01 06:12:34;;;;;;;6.23;3.70;;;17.70;99.90;;;;;;4886595;29;20181;-76
2022/11/01 06:15:00;;;;;;;7.13;3.70;;;17.80;99.90;;;;;;4889024;29;20185;-80
2022/11/01 06:17:25;;;;;;;6.03;4.17;;;17.80;99.90;;;;;;4896741;29;20178;-74
2022/11/01 06:19:51;;;;;;;11.43;4.40;;;17.70;99.90;;;;;;4900298;29;20276;-75
2022/11/01 06:22:16;;;;;;;6.83;3.97;;;17.70;99.90;;;;;;4900052;29;20216;-76
2022/11/01 06:24:42;;;;;;;8.40;3.87;;;17.70;99.90;;;;;;4899719;29;20644;-76
2022/11/01 06:27:07;;;;;;;5.07;4.40;;;17.80;99.90;;;;;;4900055;29;20176;-74
2022/11/01 06:29:33;;;;;;;5.67;4.07;;;17.80;99.90;;;;;;4900004;29;20212;-77
2022/11/01 06:32:01;;;;;;;10.27;4.50;;;17.80;99.90;;;;;;4899896;29;20239;-82
2022/11/01 06:34:26;;;;;;;12.10;4.47;;;17.80;99.90;;;;;;4899791;29;20180;-79
2022/11/01 06:36:52;;;;;;;9.90;4.80;;;17.80;99.90;;;;;;4900088;29;20489;-77
2022/11/01 06:39:17;;;;;;;6.00;4.17;;;17.80;99.90;;;;;;4899362;29;20184;-73
2022/11/01 06:41:43;;;;;;;6.80;3.43;;;17.80;99.90;;;;;;4880274;29;20244;-76
2022/11/01 06:44:08;;;;;;;4.83;3.63;;;17.80;99.90;;;;;;4881081;29;20260;-78
2022/11/01 06:46:34;;;;;;;9.73;4.83;;;17.80;99.90;;;;;;4893109;29;20622;-76
2022/11/01 06:48:59;;;;;;;8.30;5.07;;;17.80;99.90;;;;;;4897812;29;20712;-72
2022/11/01 06:51:26;;;;;;;5.87;3.60;;;17.90;99.90;;;;;;4886912;29;20177;-72
2022/11/01 06:53:51;;;;;;;12.13;3.30;;;17.80;99.90;;;;;;4895228;29;20546;-75
2022/11/01 06:56:17;;;;;;;6.00;3.23;;;18.00;99.90;;;;;;4887683;29;20477;-73
2022/11/01 06:58:42;;;;;;;5.43;3.77;;;17.90;99.90;;;;;;4887995;29;20176;-72
2022/11/01 07:01:08;;;;;;;6.67;3.43;;;17.90;99.90;;;;;;4885541;29;20209;-72
2022/11/01 07:03:33;;;;;;;4.27;2.93;;;17.80;99.90;;;;;;4871998;29;20588;-72
2022/11/01 07:05:59;;;;;;;5.60;3.73;;;18.00;99.90;;;;;;4894187;29;20185;-73
2022/11/01 07:08:25;;;;;;;5.57;3.67;;;17.90;99.90;;;;;;4882147;29;20211;-72
2022/11/01 07:10:51;;;;;;;3.93;2.63;;;17.90;99.90;;;;;;4887950;29;20488;-77
2022/11/01 07:13:16;;;;;;;4.33;2.30;;;18.00;99.90;;;;;;4897526;29;20192;-73
2022/11/01 07:15:42;;;;;;;4.53;2.73;;;17.80;99.90;;;;;;4898077;29;20200;-75
2022/11/01 07:18:08;;;;;;;7.73;3.03;;;17.90;99.90;;;;;;4897994;29;20187;-76
2022/11/01 07:20:40;;;;;;;3.23;2.50;;;17.80;99.90;;;;;;4898049;29;20180;-76
2022/11/01 07:23:09;;;;;;;7.50;2.20;;;17.80;99.90;;;;;;4897801;29;20495;-75
2022/11/01 07:25:34;;;;;;;3.23;2.20;;;17.70;99.90;;;;;;4897911;29;20524;-74
2022/11/01 07:28:00;;;;;;;2.37;2.17;;;17.60;99.90;;;;;;4897833;29;20463;-74
2022/11/01 07:30:27;;;;;;;3.47;1.83;;;17.60;99.90;;;;;;4891468;29;20192;-72
2022/11/01 07:33:00;;;;;;;2.30;1.50;;;17.50;99.90;;;;;;4888538;29;20184;-74
2022/11/01 07:35:26;;;;;;;3.93;2.57;;;17.50;99.90;;;;;;4888439;29;20457;-76
2022/11/01 07:37:54;;;;;;;6.73;1.83;;;17.50;99.90;;;;;;4887628;29;20441;-74
2022/11/01 07:40:26;;;;;;;3.40;1.60;;;17.40;99.90;;;;;;4885988;29;20887;-75
2022/11/01 07:42:53;;;;;;;8.50;1.87;;;17.40;99.90;;;;;;4888754;29;20555;-76
2022/11/01 07:45:18;;;;;;;6.30;2.00;;;17.40;99.90;;;;;;4887809;29;20433;-73
2022/11/01 07:47:44;;;;;;;4.40;1.77;;;17.30;99.90;;;;;;4886792;29;20508;-75
2022/11/01 07:50:10;;;;;;;3.00;1.17;;;17.40;99.90;;;;;;4866882;29;20230;-75
2022/11/01 07:52:35;;;;;;;2.13;1.20;;;17.30;99.90;;;;;;4878167;29;20184;-76
2022/11/01 07:55:01;;;;;;;6.80;1.50;;;17.30;99.90;;;;;;4878588;29;20183;-76
2022/11/01 07:57:26;;;;;;;4.50;1.30;;;17.20;99.90;;;;;;4878577;29;20276;-74
2022/11/01 07:59:52;;;;;;;1.93;1.10;;;17.30;99.90;;;;;;4883275;29;20184;-73
2022/11/01 08:02:17;;;;;;;3.50;1.33;;;17.20;99.90;;;;;;4886584;29;20708;-75
2022/11/01 08:04:43;;;;;;;3.23;1.30;;;17.20;99.90;;;;;;4887945;29;20189;-75
2022/11/01 08:07:08;;;;;;;2.13;1.27;;;17.30;99.90;;;;;;4887062;29;20272;-73
2022/11/01 08:09:34;;;;;;;4.43;1.13;;;17.30;99.90;;;;;;4886155;29;20177;-74
2022/11/01 08:12:00;;;;;;;4.03;1.33;;;17.30;99.90;;;;;;4888485;29;20183;-73
2022/11/01 08:14:26;;;;;;;2.80;1.63;;;17.30;99.90;;;;;;4886486;29;20495;-76
2022/11/01 08:16:54;;;;;;;2.33;1.30;;;17.40;99.90;;;;;;4886231;29;20443;-73
2022/11/01 08:19:21;;;;;;;1.33;0.97;;;17.50;99.90;;;;;;4887708;29;20184;-74
2022/11/01 08:21:49;;;;;;;3.73;1.30;;;17.70;99.90;;;;;;4886627;29;20493;-74
2022/11/01 08:24:14;;;;;;;3.17;1.40;;;17.80;99.90;;;;;;4885555;29;20460;-73
2022/11/01 08:26:40;;;;;;;2.90;1.40;;;17.90;99.90;;;;;;4886283;29;20965;-74
2022/11/01 08:29:05;;;;;;;2.90;1.10;;;17.80;99.90;;;;;;4887055;29;20541;-73
2022/11/01 08:31:31;;;;;;;3.03;1.50;;;17.80;99.90;;;;;;4887355;29;20231;-74
2022/11/01 08:33:56;;;;;;;5.63;1.80;;;17.80;99.90;;;;;;4885929;29;20181;-74
2022/11/01 08:36:22;;;;;;;1.70;0.93;;;17.90;99.90;;;;;;4887534;29;20181;-76
2022/11/01 08:38:48;;;;;;;3.07;1.60;;;18.00;99.90;;;;;;4887036;29;20202;-73
2022/11/01 08:41:14;;;;;;;6.47;1.30;;;18.00;99.90;;;;;;4886344;29;20216;-75
2022/11/01 08:43:39;;;;;;;2.40;1.27;;;18.00;99.90;;;;;;4871173;29;20445;-75
2022/11/01 08:46:05;;;;;;;2.33;1.40;;;18.00;99.90;;;;;;4871691;29;20180;-74
2022/11/01 08:48:31;;;;;;;4.27;1.93;;;18.00;99.90;;;;;;4896886;29;20263;-74
2022/11/01 08:50:56;;;;;;;2.73;1.27;;;17.90;99.90;;;;;;4896843;29;20205;-76
2022/11/01 08:53:23;;;;;;;13.20;3.43;;;17.90;99.90;;;;;;4896829;29;20436;-73
2022/11/01 08:55:54;;;;;;;2.90;1.60;;;18.00;99.90;;;;;;4893228;29;20482;-80
2022/11/01 08:58:20;;;;;;;3.50;1.30;;;18.10;99.90;;;;;;4886623;29;20697;-75
2022/11/01 09:00:45;;;;;;;3.50;1.50;;;18.10;99.90;;;;;;4886697;29;20603;-81
2022/11/01 09:03:11;;;;;;;3.70;1.57;;;18.00;99.90;;;;;;4871167;29;20189;-81
2022/11/01 09:05:36;;;;;;;6.17;1.20;;;17.80;99.90;;;;;;4888384;29;20192;-71
2022/11/01 09:08:02;;;;;;;3.77;1.47;;;17.90;99.90;;;;;;4895924;29;20176;-74
2022/11/01 09:10:29;;;;;;;4.40;1.60;;;17.90;99.90;;;;;;4896534;29;20180;-71
2022/11/01 09:12:56;;;;;;;6.73;2.00;;;17.70;99.90;;;;;;4879816;29;20625;-80
2022/11/01 09:15:22;;;;;;;3.53;1.67;;;17.70;99.90;;;;;;4896688;29;20429;-75
2022/11/01 09:17:47;;;;;;;8.07;1.97;;;17.70;99.90;;;;;;4892740;29;20795;-81
2022/11/01 09:20:14;;;;;;;7.50;1.70;;;17.50;99.90;;;;;;4896702;29;20232;-73
2022/11/01 09:22:39;;;;;;;4.43;1.30;;;17.50;99.90;;;;;;4898080;29;20216;-79
2022/11/01 09:25:06;;;;;;;7.00;2.03;;;17.40;99.90;;;;;;4879737;29;20947;-74
2022/11/01 09:27:32;;;;;;;8.70;1.70;;;17.40;99.90;;;;;;4878712;29;20189;-74
2022/11/01 09:29:57;;;;;;;9.03;2.53;;;17.40;99.90;;;;;;4878810;29;20528;-74
2022/11/01 09:32:25;;;;;;;10.80;2.27;;;17.30;99.90;;;;;;4878679;29;20236;-74
2022/11/01 09:34:51;;;;;;;7.10;2.10;;;17.30;99.90;;;;;;4878403;29;20177;-74
2022/11/01 09:37:16;;;;;;;7.00;2.53;;;17.40;99.90;;;;;;4878517;29;20850;-74
2022/11/01 09:39:42;;;;;;;6.37;2.13;;;17.40;99.90;;;;;;4878772;29;20192;-74
2022/11/01 09:42:17;;;;;;;9.10;1.97;;;17.20;99.90;;;;;;4880800;29;20692;-74
2022/11/01 09:44:46;;;;;;;15.93;3.10;;;17.20;99.90;;;;;;4882304;29;20181;-74
2022/11/01 09:47:17;;;;;;;7.53;2.20;;;17.00;99.90;;;;;;4882050;29;20489;-74
2022/11/01 09:49:46;;;;;;;5.33;2.57;;;17.10;99.90;;;;;;4882160;29;20430;-74
2022/11/01 09:52:22;;;;;;;7.10;2.20;;;17.10;99.90;;;;;;4882051;29;20592;-74
2022/11/01 09:54:48;;;;;;;9.13;2.03;;;17.20;99.90;;;;;;4882142;29;20889;-73
2022/11/01 09:57:29;;;;;;;10.37;3.10;;;17.20;99.90;;;;;;4865365;29;20489;-74
2022/11/01 10:00:20;;;;;;;8.33;2.13;;;17.30;99.90;;;;;;4881941;29;20429;-74
2022/11/01 10:03:13;;;;;;;11.70;2.70;;;17.40;99.90;;;;;;4881774;29;20636;-74
2022/11/01 10:05:38;;;;;;;6.60;2.30;;;17.40;99.90;;;;;;4881808;29;20433;-74
2022/11/01 10:08:10;;;;;;;14.23;3.77;;;17.40;99.90;;;;;;4881790;29;20436;-73
2022/11/01 10:10:43;;;;;;;17.73;2.40;;;17.40;99.90;;;;;;4881777;29;20193;-74
2022/11/01 10:13:31;;;;;;;10.60;2.90;;;17.40;99.90;;;;;;4881695;29;20441;-74
2022/11/01 10:16:15;;;;;;;6.70;2.80;;;17.30;99.90;;;;;;4881581;29;20466;-74
2022/11/01 10:18:54;;;;;;;9.60;2.97;;;17.40;99.90;;;;;;4881608;29;20525;-74
2022/11/01 10:21:20;;;;;;;8.50;2.20;;;17.30;99.90;;;;;;4881403;29;20477;-74
2022/11/01 10:23:51;;;;;;;9.07;2.10;;;17.40;99.90;;;;;;4881401;29;20437;-74
2022/11/01 10:26:25;;;;;;;6.47;2.80;;;17.40;99.90;;;;;;4881215;29;20802;-74
2022/11/01 10:29:03;;;;;;;21.63;3.17;;;17.40;99.90;;;;;;4881124;29;20461;-74
2022/11/01 10:31:36;;;;;;;9.80;2.83;;;17.50;99.90;;;;;;4892296;29;20516;-74
2022/11/01 10:34:09;;;;;;;10.13;2.17;;;17.50;99.90;;;;;;4899908;29;20433;-74
2022/11/01 10:36:38;;;;;;;10.33;2.30;;;17.60;99.90;;;;;;4899366;29;20443;-74
2022/11/01 10:39:34;;;;;;;5.17;2.37;;;17.70;99.90;;;;;;4899980;29;20428;-73
2022/11/01 10:42:16;;;;;;;5.50;1.90;;;17.60;99.90;;;;;;4899877;29;20480;-74
2022/11/01 10:44:54;;;;;;;6.70;2.90;;;17.70;99.90;;;;;;4898699;29;20467;-74
2022/11/01 10:47:20;;;;;;;12.13;2.30;;;17.70;99.90;;;;;;4881831;29;20450;-74
2022/11/01 10:50:00;;;;;;;12.67;2.57;;;17.80;99.90;;;;;;4898969;29;20791;-74
2022/11/01 10:52:31;;;;;;;7.80;2.00;;;17.70;99.90;;;;;;4898465;29;20462;-74
2022/11/01 10:54:59;;;;;;;14.40;2.47;;;17.80;99.90;;;;;;4898800;29;20528;-74
2022/11/01 10:57:37;;;;;;;6.73;2.20;;;17.90;99.90;;;;;;4898652;29;20441;-74
2022/11/01 11:00:12;;;;;;;9.80;2.70;;;18.00;99.90;;;;;;4898827;29;20467;-74
2022/11/01 11:02:46;;;;;;;9.10;2.33;;;18.00;99.90;;;;;;4898330;29;20877;-74
2022/11/01 11:05:15;;;;;;;9.23;2.80;;;18.00;99.90;;;;;;4898688;29;20437;-74
2022/11/01 11:07:41;;;;;;;7.47;2.50;;;18.00;99.90;;;;;;4898537;29;20456;-74
2022/11/01 11:10:27;;;;;;;5.73;1.70;;;18.00;99.90;;;;;;4881717;29;20460;-74
2022/11/01 11:13:01;;;;;;;9.97;2.30;;;17.90;99.90;;;;;;4898523;29;20939;-74
2022/11/01 11:15:49;;;;;;;7.17;2.37;;;17.90;99.90;;;;;;4898449;29;20433;-74
2022/11/01 11:18:22;;;;;;;11.27;2.13;;;18.10;99.90;;;;;;4883714;29;20429;-74
2022/11/01 11:20:58;;;;;;;8.50;1.70;;;18.20;99.30;;;;;;4898525;29;20436;-74
2022/11/01 11:23:26;;;;;;;27.97;3.43;;;18.20;99.50;;;;;;4898238;29;20432;-74
2022/11/01 11:25:59;;;;;;;5.57;2.10;;;18.30;99.20;;;;;;4881407;29;20800;-74
2022/11/01 11:28:29;;;;;;;11.80;2.40;;;18.30;98.60;;;;;;4898143;29;20944;-74
2022/11/01 11:30:57;;;;;;;7.87;2.40;;;18.50;99.00;;;;;;4898058;29;20480;-74
2022/11/01 11:33:23;;;;;;;6.83;1.80;;;18.40;98.10;;;;;;4881346;29;20515;-74
2022/11/01 11:35:58;;;;;;;6.00;1.90;;;18.50;98.30;;;;;;4898156;29;20573;-74
2022/11/01 11:38:45;;;;;;;4.87;1.90;;;18.70;98.60;;;;;;4897968;29;20168;-74
2022/11/01 11:41:24;;;;;;;5.23;2.13;;;19.00;97.40;;;;;;4897989;29;20432;-74
2022/11/01 11:43:49;;;;;;;10.03;2.43;;;18.90;96.20;;;;;;4898009;29;20436;-74
2022/11/01 11:46:20;;;;;;;8.80;2.20;;;19.00;96.40;;;;;;4897851;29;20523;-74
2022/11/01 11:48:59;;;;;;;9.83;2.00;;;19.20;96.30;;;;;;4897902;29;20177;-74
2022/11/01 11:51:30;;;;;;;6.93;2.63;;;19.20;95.50;;;;;;4897851;29;20524;-74
2022/11/01 11:54:20;;;;;;;12.33;2.20;;;18.90;95.40;;;;;;4897883;29;20429;-74
2022/11/01 11:56:51;;;;;;;6.60;2.23;;;18.90;96.10;;;;;;4880864;29;21023;-74
2022/11/01 11:59:27;;;;;;;8.17;2.30;;;18.90;96.50;;;;;;4897699;29;20428;-74
2022/11/01 12:02:02;;;;;;;12.20;2.97;;;18.90;95.80;;;;;;4897602;29;20471;-74
2022/11/01 12:04:39;;;;;;;8.90;2.00;;;19.00;96.00;;;;;;4896874;29;20495;-74
2022/11/01 12:07:10;;;;;;;7.63;2.30;;;19.00;94.90;;;;;;4897544;29;20988;-74
2022/11/01 12:09:45;;;;;;;5.97;1.90;;;18.90;94.60;;;;;;4897488;29;20955;-74
2022/11/01 12:12:25;;;;;;;10.87;2.63;;;18.90;95.30;;;;;;4897514;29;20424;-74
2022/11/01 12:14:51;;;;;;;7.40;1.87;;;18.90;95.40;;;;;;4897563;29;20420;-74
2022/11/01 12:17:23;;;;;;;10.57;2.90;;;18.90;95.00;;;;;;4897405;29;21008;-74
2022/11/01 12:19:59;;;;;;;8.93;2.30;;;18.80;95.10;;;;;;4897375;29;20503;-75
2022/11/01 12:22:27;;;;;;;23.10;3.13;;;18.80;94.70;;;;;;4896780;29;20472;-73
2022/11/01 12:24:58;;;;;;;9.40;2.80;;;18.70;94.50;;;;;;4896699;29;20484;-73
2022/11/01 12:27:24;;;;;;;12.00;2.67;;;18.60;95.10;;;;;;4896954;29;20488;-73
2022/11/01 12:29:59;;;;;;;4.87;2.00;;;18.50;95.20;;;;;;4897191;29;20451;-73
2022/11/01 12:32:31;;;;;;;8.57;2.60;;;18.50;95.60;;;;;;4896727;29;21017;-73
2022/11/01 12:35:01;;;;;;;6.73;1.70;;;18.50;94.80;;;;;;4897216;29;20848;-73
2022/11/01 12:38:01;;;;;;;11.47;2.50;;;18.40;94.70;;;;;;4896723;29;21170;-74
2022/11/01 12:40:32;;;;;;;7.50;1.90;;;18.30;95.00;;;;;;4880155;29;20444;-73
2022/11/01 12:43:02;;;;;;;4.47;1.57;;;18.30;95.00;;;;;;4896795;29;20583;-74
2022/11/01 12:45:51;;;;;;;8.10;2.00;;;18.30;95.00;;;;;;4896042;29;20461;-77
2022/11/01 12:48:43;;;;;;;6.03;2.00;;;18.30;95.20;;;;;;4892700;29;20433;-75
2022/11/01 12:51:19;;;;;;;5.37;1.90;;;18.20;95.50;;;;;;4880414;29;20529;-73
2022/11/01 12:54:05;;;;;;;5.13;1.93;;;18.20;95.90;;;;;;4884869;29;20933;-74
2022/11/01 12:56:31;;;;;;;7.23;1.97;;;18.20;95.90;;;;;;4885299;29;20448;-74
2022/11/01 12:58:57;;;;;;;9.53;2.63;;;18.20;96.20;;;;;;4880782;29;20422;-74
2022/11/01 13:01:40;;;;;;;9.43;1.90;;;18.20;96.40;;;;;;4861255;29;20462;-74
2022/11/01 13:04:35;;;;;;;5.60;1.50;;;18.20;96.80;;;;;;4878017;29;20516;-77
2022/11/01 13:07:04;;;;;;;6.63;1.80;;;18.30;97.90;;;;;;4871474;29;20764;-83
2022/11/01 13:09:54;;;;;;;10.57;2.73;;;18.30;96.50;;;;;;4877751;29;20436;-75
2022/11/01 13:12:40;;;;;;;8.63;1.90;;;18.30;96.30;;;;;;4878209;29;20801;-73
2022/11/01 13:15:19;;;;;;;7.60;2.17;;;18.40;96.40;;;;;;4879573;29;20836;-77
2022/11/01 13:18:11;;;;;;;8.30;3.13;;;18.50;95.70;;;;;;4882017;29;20824;-74
2022/11/01 13:20:59;;;;;;;8.90;2.13;;;18.50;95.10;;;;;;4881731;29;20512;-75
2022/11/01 13:23:34;;;;;;;11.70;1.77;;;18.50;95.30;;;;;;4881897;29;20445;-75
2022/11/01 13:26:13;;;;;;;5.83;2.30;;;18.50;95.20;;;;;;4886440;29;20424;-74
2022/11/01 13:29:16;;;;;;;5.43;1.97;;;18.50;95.50;;;;;;4890595;29;20449;-73
2022/11/01 13:31:50;;;;;;;6.87;2.17;;;18.60;95.50;;;;;;4880811;29;20559;-75
2022/11/01 13:34:38;;;;;;;9.53;2.10;;;18.60;94.80;;;;;;4890042;29;20443;-74
2022/11/01 13:37:36;;;;;;;10.10;2.30;;;18.50;95.10;;;;;;4890853;29;20913;-73
2022/11/01 13:40:14;;;;;;;11.07;2.00;;;18.40;95.40;;;;;;4890630;29;20956;-74
2022/11/01 13:43:07;;;;;;;4.03;1.70;;;18.40;95.90;;;;;;4889915;29;20475;-73
2022/11/01 13:45:32;;;;;;;8.47;2.20;;;18.40;95.80;;;;;;4890841;29;20842;-72
2022/11/01 13:48:28;;;;;;;6.60;1.93;;;18.40;96.10;;;;;;4889862;29;20437;-72
2022/11/01 13:50:59;;;;;;;5.53;2.17;;;18.40;96.10;;;;;;4889195;29;20649;-72
2022/11/01 13:53:24;;;;;;;6.17;1.80;;;18.30;97.00;;;;;;4889508;29;20421;-72
2022/11/01 13:56:09;;;;;;;8.93;2.53;;;18.30;96.50;;;;;;4890386;29;20451;-72
2022/11/01 13:58:35;;;;;;;11.63;2.10;;;18.30;96.00;;;;;;4888888;29;20249;-72
2022/11/01 14:01:40;;;;;;;7.10;2.00;;;18.10;95.90;;;;;;4889708;29;20436;-72
2022/11/01 14:04:05;;;;;;;8.17;1.93;;;18.20;95.90;;;;;;4890232;29;20794;-72
2022/11/01 14:06:36;;;;;;;6.00;2.27;;;18.10;95.80;;;;;;4888446;29;20441;-70
2022/11/01 14:09:28;;;;;;;6.40;1.93;;;18.10;96.30;;;;;;4889713;29;20271;-71
2022/11/01 14:11:56;;;;;;;9.30;2.43;;;18.10;96.50;;;;;;4888096;29;20437;-72
2022/11/01 14:14:31;;;;;;;6.80;1.80;;;18.10;97.10;;;;;;4889752;29;20437;-74
2022/11/01 14:17:15;;;;;;;9.80;2.63;;;18.10;96.50;;;;;;4889145;29;20448;-73
2022/11/01 14:19:48;;;;;;;5.10;2.33;;;18.10;95.70;;;;;;4890195;29;20436;-74
2022/11/01 14:22:34;;;;;;;7.87;2.57;;;18.10;96.00;;;;;;4892806;29;20480;-74
2022/11/01 14:25:03;;;;;;;5.33;1.80;;;18.00;96.00;;;;;;4892687;29;20436;-73
2022/11/01 14:27:35;;;;;;;7.33;2.60;;;18.00;95.70;;;;;;4870720;29;20536;-72
2022/11/01 14:30:13;;;;;;;6.47;2.33;;;18.00;95.70;;;;;;4887871;29;20445;-73
2022/11/01 14:32:39;;;;;;;7.47;1.90;;;18.10;95.80;;;;;;4889157;29;20473;-74
2022/11/01 14:35:10;;;;;;;7.10;2.40;;;18.10;96.10;;;;;;4890142;29;20457;-72
2022/11/01 14:37:46;;;;;;;9.57;2.20;;;18.10;95.70;;;;;;4898533;29;20268;-72
2022/11/01 14:40:27;;;;;;;5.43;1.70;;;18.00;95.40;;;;;;4888657;29;20543;-72
2022/11/01 14:42:55;;;;;;;11.57;2.70;;;18.00;95.60;;;;;;4893986;29;20484;-74
2022/11/01 14:45:30;;;;;;;9.63;3.67;;;18.00;96.30;;;;;;4898745;29;20437;-72
2022/11/01 14:48:01;;;;;;;7.03;2.53;;;17.90;96.00;;;;;;4898804;29;20851;-73
2022/11/01 14:51:04;;;;;;;6.23;1.80;;;18.00;96.20;;;;;;4898364;29;20441;-72
2022/11/01 14:53:36;;;;;;;11.50;2.93;;;17.90;96.10;;;;;;4878228;29;21000;-72
2022/11/01 14:56:17;;;;;;;6.47;3.30;;;17.90;96.40;;;;;;4897443;29;20793;-72
2022/11/01 14:58:44;;;;;;;15.10;3.70;;;17.90;97.10;;;;;;4898784;29;20811;-72
2022/11/01 15:01:22;;;;;;;8.27;2.63;;;18.00;97.40;;;;;;4897195;29;20445;-77
2022/11/01 15:03:57;;;;;;;12.27;5.27;;;18.00;97.30;;;;;;4898260;29;20448;-80
2022/11/01 15:06:26;;;;;;;8.27;3.00;;;17.90;96.70;;;;;;4891529;29;20441;-76
2022/11/01 15:08:57;;;;;;;12.80;2.80;;;17.90;97.00;;;;;;4879203;29;20438;-74
2022/11/01 15:11:26;;;;;;;3.30;2.17;;;17.90;96.90;;;;;;4880411;29;20596;-73
2022/11/01 15:13:53;;;;;;;5.20;2.60;;;17.90;96.00;;;;;;4880349;29;20484;-73
2022/11/01 15:16:25;;;;;;;6.17;2.43;;;17.80;96.30;;;;;;4880355;29;20469;-72
2022/11/01 15:18:57;;;;;;;8.63;2.20;;;17.80;96.70;;;;;;4880528;29;20858;-72
2022/11/01 15:21:25;;;;;;;6.20;2.57;;;17.80;98.00;;;;;;4880215;29;20552;-72
2022/11/01 15:23:52;;;;;;;7.37;2.10;;;17.70;98.30;;;;;;4880504;29;20804;-73
2022/11/01 15:26:22;;;;;;;5.30;3.60;;;17.80;98.60;;;;;;4879960;29;20433;-74
2022/11/01 15:29:06;;;;;;;14.87;3.90;;;17.70;99.90;;;;;;4883962;29;20460;-73
2022/11/01 15:31:33;;;;;;;8.67;3.70;;;17.90;99.90;;;;;;4886959;29;20505;-74
2022/11/01 15:34:02;;;;;;;6.00;2.50;;;18.00;99.90;;;;;;4888151;29;20429;-75
2022/11/01 15:36:36;;;;;;;5.10;2.10;;;17.90;99.90;;;;;;4888386;29;20844;-75
2022/11/01 15:39:15;;;;;;;7.13;2.00;;;17.90;99.90;;;;;;4878274;29;20966;-82
2022/11/01 15:41:41;;;;;;;12.00;3.40;;;17.90;99.90;;;;;;4898836;29;20571;-76
2022/11/01 15:44:21;;;;;;;6.00;2.77;;;17.80;99.90;;;;;;4898786;29;20504;-77
2022/11/01 15:46:48;;;;;;;5.30;1.90;;;17.70;99.90;;;;;;4898804;29;20948;-77
2022/11/01 15:49:33;;;;;;;6.20;2.70;;;17.60;99.90;;;;;;4899163;29;20999;-79
2022/11/01 15:52:22;;;;;;;9.47;2.10;;;17.60;99.90;;;;;;4898534;29;20848;-82
2022/11/01 15:54:57;;;;;;;6.80;2.00;;;17.60;99.80;;;;;;4902401;29;20476;-80
2022/11/01 15:57:32;;;;;;;3.57;1.70;;;17.40;99.90;;;;;;4898398;29;20951;-80
2022/11/01 16:00:17;;;;;;;6.37;2.20;;;17.30;99.80;;;;;;4899352;29;20428;-79
2022/11/01 16:03:06;;;;;;;12.17;2.30;;;17.30;99.90;;;;;;4898729;29;20993;-83
2022/11/01 16:05:49;;;;;;;4.60;2.20;;;17.30;99.90;;;;;;4898592;29;20425;-79
2022/11/01 16:08:24;;;;;;;6.53;2.10;;;17.30;99.90;;;;;;4897865;29;20429;-81
2022/11/01 16:10:49;;;;;;;6.53;2.33;;;17.30;99.90;;;;;;4879072;29;20809;-86
2022/11/01 16:13:17;;;;;;;8.00;2.87;;;17.30;99.90;;;;;;4897556;29;20181;-84
2022/11/01 16:16:07;;;;;;;8.30;2.40;;;17.40;99.90;;;;;;4896723;29;20247;-79
2022/11/01 16:18:38;;;;;;;6.50;2.10;;;17.40;99.90;;;;;;4896895;29;20432;-81
2022/11/01 16:21:06;;;;;;;6.30;3.03;;;17.40;99.90;;;;;;4895860;29;20425;-83
2022/11/01 16:23:32;;;;;;;6.80;2.20;;;17.50;99.90;;;;;;4897193;29;20469;-78
2022/11/01 16:26:06;;;;;;;10.97;2.30;;;17.40;99.90;;;;;;4897320;29;20436;-77
2022/11/01 16:28:38;;;;;;;5.70;2.40;;;17.40;99.90;;;;;;4896882;29;20447;-78
2022/11/01 16:31:19;;;;;;;10.03;2.87;;;17.40;99.90;;;;;;4896760;29;20826;-79
2022/11/01 16:33:46;;;;;;;5.50;2.47;;;17.30;99.90;;;;;;4896992;29;20440;-76
2022/11/01 16:36:17;;;;;;;9.87;2.87;;;17.30;99.90;;;;;;4896972;29;20429;-82
2022/11/01 16:38:49;;;;;;;3.97;1.70;;;17.30;99.90;;;;;;4882257;29;20434;-79
2022/11/01 16:41:19;;;;;;;7.00;2.58;;;17.20;99.70;;;;;;4878839;29;21055;-81
2022/11/01 16:43:55;;;;;;;4.93;2.53;;;17.10;98.40;;;;;;4878509;29;20444;-77
2022/11/01 16:46:23;;;;;;;11.37;3.97;;;17.00;98.30;;;;;;4877778;29;20516;-85
2022/11/01 16:48:54;;;;;;;16.10;3.03;;;17.00;98.50;;;;;;4878785;29;20441;-79
2022/11/01 16:51:25;;;;;;;7.97;1.90;;;16.90;98.50;;;;;;4884908;29;20426;-81
2022/11/01 16:53:51;;;;;;;4.43;2.20;;;16.80;98.60;;;;;;4881639;29;20874;-83
2022/11/01 16:56:27;;;;;;;7.33;2.40;;;16.70;98.90;;;;;;4882201;29;20469;-79
2022/11/01 16:59:17;;;;;;;5.10;2.47;;;16.70;99.00;;;;;;4882097;29;20448;-77
2022/11/01 17:01:44;;;;;;;6.93;2.23;;;16.70;98.90;;;;;;4872916;29;20473;-80
2022/11/01 17:04:11;;;;;;;6.23;2.00;;;16.60;99.20;;;;;;4892284;29;20436;-77